sensor_id;sensor_type;location;lat;lon;timestamp;P1;durP1;ratioP1;P2;durP2;ratioP2
3811;SDS011;1921;49.368;11.068;2023-02-22T00:00:36;50.37;;;45.70;;
3811;SDS011;1921;49.368;11.068;2023-02-22T00:03:09;49.90;;;45.60;;
3811;SDS011;1921;49.368;11.068;2023-02-22T00:05:39;50.03;;;45.57;;
3811;SDS011;1921;49.368;11.068;2023-02-22T00:08:11;50.70;;;45.80;;
3811;SDS011;1921;49.368;11.068;2023-02-22T00:10:39;48.77;;;44.60;;
3811;SDS011;1921;49.368;11.068;2023-02-22T00:13:08;49.90;;;45.40;;
3811;SDS011;1921;49.368;11.068;2023-02-22T00:15:37;49.33;;;45.10;;
3811;SDS011;1921;49.368;11.068;2023-02-22T00:18:08;49.30;;;44.77;;
3811;SDS011;1921;49.368;11.068;2023-02-22T00:20:39;47.60;;;43.63;;
3811;SDS011;1921;49.368;11.068;2023-02-22T00:23:05;48.00;;;43.73;;
3811;SDS011;1921;49.368;11.068;2023-02-22T00:25:37;49.20;;;45.03;;
3811;SDS011;1921;49.368;11.068;2023-02-22T00:28:03;49.03;;;44.50;;
3811;SDS011;1921;49.368;11.068;2023-02-22T00:30:29;47.80;;;43.90;;
3811;SDS011;1921;49.368;11.068;2023-02-22T00:32:56;49.07;;;44.60;;
3811;SDS011;1921;49.368;11.068;2023-02-22T00:35:24;48.70;;;44.60;;
3811;SDS011;1921;49.368;11.068;2023-02-22T00:37:56;48.03;;;44.10;;
3811;SDS011;1921;49.368;11.068;2023-02-22T00:40:28;49.03;;;44.70;;
3811;SDS011;1921;49.368;11.068;2023-02-22T00:42:56;49.23;;;44.93;;
3811;SDS011;1921;49.368;11.068;2023-02-22T00:45:24;49.30;;;45.10;;
3811;SDS011;1921;49.368;11.068;2023-02-22T00:47:53;48.50;;;44.33;;
3811;SDS011;1921;49.368;11.068;2023-02-22T00:50:20;47.93;;;43.90;;
3811;SDS011;1921;49.368;11.068;2023-02-22T00:52:47;48.20;;;44.37;;
3811;SDS011;1921;49.368;11.068;2023-02-22T00:55:15;47.13;;;43.40;;
3811;SDS011;1921;49.368;11.068;2023-02-22T00:57:50;46.43;;;42.77;;
3811;SDS011;1921;49.368;11.068;2023-02-22T01:00:19;47.83;;;43.73;;
3811;SDS011;1921;49.368;11.068;2023-02-22T01:03:03;47.67;;;43.83;;
3811;SDS011;1921;49.368;11.068;2023-02-22T01:05:30;47.20;;;43.40;;
3811;SDS011;1921;49.368;11.068;2023-02-22T01:07:57;47.23;;;43.40;;
3811;SDS011;1921;49.368;11.068;2023-02-22T01:10:25;48.83;;;44.90;;
3811;SDS011;1921;49.368;11.068;2023-02-22T01:12:55;47.43;;;43.30;;
3811;SDS011;1921;49.368;11.068;2023-02-22T01:15:22;47.77;;;43.80;;
3811;SDS011;1921;49.368;11.068;2023-02-22T01:17:52;48.40;;;44.40;;
3811;SDS011;1921;49.368;11.068;2023-02-22T01:20:19;48.53;;;44.00;;
3811;SDS011;1921;49.368;11.068;2023-02-22T01:22:47;48.30;;;44.30;;
3811;SDS011;1921;49.368;11.068;2023-02-22T01:25:16;48.50;;;44.50;;
3811;SDS011;1921;49.368;11.068;2023-02-22T01:27:47;47.83;;;43.90;;
3811;SDS011;1921;49.368;11.068;2023-02-22T01:30:14;47.23;;;43.43;;
3811;SDS011;1921;49.368;11.068;2023-02-22T01:32:44;47.00;;;43.17;;
3811;SDS011;1921;49.368;11.068;2023-02-22T01:35:12;47.47;;;43.77;;
3811;SDS011;1921;49.368;11.068;2023-02-22T01:37:42;48.23;;;44.23;;
3811;SDS011;1921;49.368;11.068;2023-02-22T01:40:09;47.30;;;43.50;;
3811;SDS011;1921;49.368;11.068;2023-02-22T01:42:44;48.00;;;44.10;;
3811;SDS011;1921;49.368;11.068;2023-02-22T01:47:58;47.53;;;43.70;;
3811;SDS011;1921;49.368;11.068;2023-02-22T01:53:30;47.37;;;43.53;;
3811;SDS011;1921;49.368;11.068;2023-02-22T01:56:01;47.87;;;43.73;;
3811;SDS011;1921;49.368;11.068;2023-02-22T01:58:29;48.53;;;44.43;;
3811;SDS011;1921;49.368;11.068;2023-02-22T02:00:57;47.40;;;43.40;;
3811;SDS011;1921;49.368;11.068;2023-02-22T02:03:27;47.03;;;43.30;;
3811;SDS011;1921;49.368;11.068;2023-02-22T02:05:57;48.50;;;44.20;;
3811;SDS011;1921;49.368;11.068;2023-02-22T02:08:30;49.10;;;44.67;;
3811;SDS011;1921;49.368;11.068;2023-02-22T02:11:04;47.13;;;43.20;;
3811;SDS011;1921;49.368;11.068;2023-02-22T02:13:32;46.30;;;42.70;;
3811;SDS011;1921;49.368;11.068;2023-02-22T02:15:58;47.70;;;43.63;;
3811;SDS011;1921;49.368;11.068;2023-02-22T02:18:25;47.37;;;43.17;;
3811;SDS011;1921;49.368;11.068;2023-02-22T02:38:17;45.77;;;42.07;;
3811;SDS011;1921;49.368;11.068;2023-02-22T02:46:26;46.80;;;43.03;;
3811;SDS011;1921;49.368;11.068;2023-02-22T02:49:04;47.67;;;43.70;;
3811;SDS011;1921;49.368;11.068;2023-02-22T02:51:37;46.10;;;42.70;;
3811;SDS011;1921;49.368;11.068;2023-02-22T02:54:08;47.67;;;44.07;;
3811;SDS011;1921;49.368;11.068;2023-02-22T02:56:35;46.07;;;42.40;;
3811;SDS011;1921;49.368;11.068;2023-02-22T02:59:01;48.17;;;43.90;;
3811;SDS011;1921;49.368;11.068;2023-02-22T03:07:02;46.67;;;42.87;;
3811;SDS011;1921;49.368;11.068;2023-02-22T03:09:58;47.53;;;43.80;;
3811;SDS011;1921;49.368;11.068;2023-02-22T03:12:57;45.67;;;42.37;;
3811;SDS011;1921;49.368;11.068;2023-02-22T03:15:49;51.43;;;43.30;;
3811;SDS011;1921;49.368;11.068;2023-02-22T03:18:42;46.00;;;42.37;;
3811;SDS011;1921;49.368;11.068;2023-02-22T03:21:24;47.93;;;43.93;;
3811;SDS011;1921;49.368;11.068;2023-02-22T03:29:52;46.63;;;43.10;;
3811;SDS011;1921;49.368;11.068;2023-02-22T03:32:24;47.80;;;43.40;;
3811;SDS011;1921;49.368;11.068;2023-02-22T03:35:03;47.47;;;43.73;;
3811;SDS011;1921;49.368;11.068;2023-02-22T03:37:41;47.40;;;43.77;;
3811;SDS011;1921;49.368;11.068;2023-02-22T03:40:14;47.30;;;43.10;;
3811;SDS011;1921;49.368;11.068;2023-02-22T03:42:50;46.90;;;43.10;;
3811;SDS011;1921;49.368;11.068;2023-02-22T03:45:21;45.80;;;42.40;;
3811;SDS011;1921;49.368;11.068;2023-02-22T03:47:52;46.77;;;43.07;;
3811;SDS011;1921;49.368;11.068;2023-02-22T03:50:36;48.07;;;44.13;;
3811;SDS011;1921;49.368;11.068;2023-02-22T03:53:03;48.60;;;44.50;;
3811;SDS011;1921;49.368;11.068;2023-02-22T03:55:29;48.27;;;44.30;;
3811;SDS011;1921;49.368;11.068;2023-02-22T03:57:59;47.53;;;43.60;;
3811;SDS011;1921;49.368;11.068;2023-02-22T04:00:31;47.73;;;43.57;;
3811;SDS011;1921;49.368;11.068;2023-02-22T04:02:58;47.93;;;44.17;;
3811;SDS011;1921;49.368;11.068;2023-02-22T04:05:24;49.03;;;44.00;;
3811;SDS011;1921;49.368;11.068;2023-02-22T04:07:51;47.37;;;43.47;;
3811;SDS011;1921;49.368;11.068;2023-02-22T04:10:18;48.67;;;44.73;;
3811;SDS011;1921;49.368;11.068;2023-02-22T04:12:44;50.57;;;45.87;;
3811;SDS011;1921;49.368;11.068;2023-02-22T04:15:11;47.23;;;43.40;;
3811;SDS011;1921;49.368;11.068;2023-02-22T04:17:40;46.93;;;43.33;;
3811;SDS011;1921;49.368;11.068;2023-02-22T04:20:05;47.80;;;43.77;;
3811;SDS011;1921;49.368;11.068;2023-02-22T04:22:33;47.93;;;44.13;;
3811;SDS011;1921;49.368;11.068;2023-02-22T04:24:58;46.73;;;42.90;;
3811;SDS011;1921;49.368;11.068;2023-02-22T04:27:24;49.10;;;45.00;;
3811;SDS011;1921;49.368;11.068;2023-02-22T04:29:50;47.23;;;43.37;;
3811;SDS011;1921;49.368;11.068;2023-02-22T04:32:15;47.30;;;43.67;;
3811;SDS011;1921;49.368;11.068;2023-02-22T04:34:41;49.03;;;44.43;;
3811;SDS011;1921;49.368;11.068;2023-02-22T04:37:07;49.20;;;44.20;;
3811;SDS011;1921;49.368;11.068;2023-02-22T04:39:34;48.90;;;45.00;;
3811;SDS011;1921;49.368;11.068;2023-02-22T04:42:00;59.60;;;43.67;;
3811;SDS011;1921;49.368;11.068;2023-02-22T04:44:25;47.87;;;43.97;;
3811;SDS011;1921;49.368;11.068;2023-02-22T04:46:51;47.73;;;44.00;;
3811;SDS011;1921;49.368;11.068;2023-02-22T04:49:17;49.90;;;45.50;;
3811;SDS011;1921;49.368;11.068;2023-02-22T04:51:43;46.97;;;43.33;;
3811;SDS011;1921;49.368;11.068;2023-02-22T04:54:09;47.10;;;43.17;;
3811;SDS011;1921;49.368;11.068;2023-02-22T04:56:34;48.00;;;43.37;;
3811;SDS011;1921;49.368;11.068;2023-02-22T04:59:00;47.57;;;43.57;;
3811;SDS011;1921;49.368;11.068;2023-02-22T05:01:30;46.60;;;43.07;;
3811;SDS011;1921;49.368;11.068;2023-02-22T05:04:01;47.47;;;43.70;;
3811;SDS011;1921;49.368;11.068;2023-02-22T05:06:29;46.63;;;42.97;;
3811;SDS011;1921;49.368;11.068;2023-02-22T05:08:54;45.97;;;42.37;;
3811;SDS011;1921;49.368;11.068;2023-02-22T05:11:20;47.57;;;43.67;;
3811;SDS011;1921;49.368;11.068;2023-02-22T05:13:46;47.57;;;43.70;;
3811;SDS011;1921;49.368;11.068;2023-02-22T05:16:12;46.80;;;43.20;;
3811;SDS011;1921;49.368;11.068;2023-02-22T05:18:38;46.77;;;43.27;;
3811;SDS011;1921;49.368;11.068;2023-02-22T05:21:04;45.60;;;42.23;;
3811;SDS011;1921;49.368;11.068;2023-02-22T05:23:30;47.63;;;43.80;;
3811;SDS011;1921;49.368;11.068;2023-02-22T05:25:57;46.20;;;42.70;;
3811;SDS011;1921;49.368;11.068;2023-02-22T05:28:24;47.93;;;44.13;;
3811;SDS011;1921;49.368;11.068;2023-02-22T05:30:50;47.60;;;43.70;;
3811;SDS011;1921;49.368;11.068;2023-02-22T05:33:15;47.10;;;43.50;;
3811;SDS011;1921;49.368;11.068;2023-02-22T05:35:41;47.40;;;43.30;;
3811;SDS011;1921;49.368;11.068;2023-02-22T05:38:09;47.17;;;43.20;;
3811;SDS011;1921;49.368;11.068;2023-02-22T05:40:38;47.40;;;43.50;;
3811;SDS011;1921;49.368;11.068;2023-02-22T05:43:05;46.37;;;42.60;;
3811;SDS011;1921;49.368;11.068;2023-02-22T05:45:32;46.10;;;42.50;;
3811;SDS011;1921;49.368;11.068;2023-02-22T05:47:57;46.17;;;42.17;;
3811;SDS011;1921;49.368;11.068;2023-02-22T05:50:23;44.73;;;41.23;;
3811;SDS011;1921;49.368;11.068;2023-02-22T05:52:50;47.00;;;42.60;;
3811;SDS011;1921;49.368;11.068;2023-02-22T05:55:17;45.13;;;41.83;;
3811;SDS011;1921;49.368;11.068;2023-02-22T05:57:46;45.70;;;42.30;;
3811;SDS011;1921;49.368;11.068;2023-02-22T06:00:17;45.50;;;42.10;;
3811;SDS011;1921;49.368;11.068;2023-02-22T06:03:08;46.40;;;42.63;;
3811;SDS011;1921;49.368;11.068;2023-02-22T06:05:35;46.20;;;42.50;;
3811;SDS011;1921;49.368;11.068;2023-02-22T06:08:02;47.93;;;44.20;;
3811;SDS011;1921;49.368;11.068;2023-02-22T06:10:30;48.00;;;43.80;;
3811;SDS011;1921;49.368;11.068;2023-02-22T06:12:56;46.60;;;43.10;;
3811;SDS011;1921;49.368;11.068;2023-02-22T06:15:23;46.10;;;42.50;;
3811;SDS011;1921;49.368;11.068;2023-02-22T06:17:51;49.00;;;43.77;;
3811;SDS011;1921;49.368;11.068;2023-02-22T06:20:19;47.97;;;43.97;;
3811;SDS011;1921;49.368;11.068;2023-02-22T06:22:47;46.77;;;42.87;;
3811;SDS011;1921;49.368;11.068;2023-02-22T06:25:16;48.03;;;43.73;;
3811;SDS011;1921;49.368;11.068;2023-02-22T06:27:45;46.60;;;42.90;;
3811;SDS011;1921;49.368;11.068;2023-02-22T06:30:11;47.63;;;43.73;;
3811;SDS011;1921;49.368;11.068;2023-02-22T06:32:39;47.07;;;43.20;;
3811;SDS011;1921;49.368;11.068;2023-02-22T06:35:05;47.73;;;43.77;;
3811;SDS011;1921;49.368;11.068;2023-02-22T06:37:31;45.17;;;41.67;;
3811;SDS011;1921;49.368;11.068;2023-02-22T06:39:56;47.43;;;43.10;;
3811;SDS011;1921;49.368;11.068;2023-02-22T06:42:22;46.30;;;42.60;;
3811;SDS011;1921;49.368;11.068;2023-02-22T06:44:48;46.50;;;42.70;;
3811;SDS011;1921;49.368;11.068;2023-02-22T06:47:14;46.93;;;43.37;;
3811;SDS011;1921;49.368;11.068;2023-02-22T06:49:40;47.60;;;43.80;;
3811;SDS011;1921;49.368;11.068;2023-02-22T06:52:06;48.03;;;43.83;;
3811;SDS011;1921;49.368;11.068;2023-02-22T06:54:33;48.50;;;44.53;;
3811;SDS011;1921;49.368;11.068;2023-02-22T06:56:59;49.27;;;44.90;;
3811;SDS011;1921;49.368;11.068;2023-02-22T06:59:24;47.63;;;43.73;;
3811;SDS011;1921;49.368;11.068;2023-02-22T07:01:51;46.90;;;43.30;;
3811;SDS011;1921;49.368;11.068;2023-02-22T07:04:19;46.73;;;42.93;;
3811;SDS011;1921;49.368;11.068;2023-02-22T07:06:45;48.30;;;44.30;;
3811;SDS011;1921;49.368;11.068;2023-02-22T07:09:13;47.43;;;43.53;;
3811;SDS011;1921;49.368;11.068;2023-02-22T07:11:40;48.43;;;43.90;;
3811;SDS011;1921;49.368;11.068;2023-02-22T07:14:07;48.27;;;44.27;;
3811;SDS011;1921;49.368;11.068;2023-02-22T07:16:33;48.47;;;44.33;;
3811;SDS011;1921;49.368;11.068;2023-02-22T07:18:59;49.63;;;45.03;;
3811;SDS011;1921;49.368;11.068;2023-02-22T07:21:25;48.30;;;44.03;;
3811;SDS011;1921;49.368;11.068;2023-02-22T07:23:55;47.63;;;43.80;;
3811;SDS011;1921;49.368;11.068;2023-02-22T07:26:22;48.50;;;44.20;;
3811;SDS011;1921;49.368;11.068;2023-02-22T07:28:49;48.13;;;44.13;;
3811;SDS011;1921;49.368;11.068;2023-02-22T07:31:15;44.20;;;41.00;;
3811;SDS011;1921;49.368;11.068;2023-02-22T07:33:41;49.77;;;45.47;;
3811;SDS011;1921;49.368;11.068;2023-02-22T07:36:09;49.00;;;44.80;;
3811;SDS011;1921;49.368;11.068;2023-02-22T07:38:37;51.13;;;46.30;;
3811;SDS011;1921;49.368;11.068;2023-02-22T07:41:03;51.10;;;46.17;;
3811;SDS011;1921;49.368;11.068;2023-02-22T07:43:29;51.63;;;46.67;;
3811;SDS011;1921;49.368;11.068;2023-02-22T07:45:56;47.03;;;43.20;;
3811;SDS011;1921;49.368;11.068;2023-02-22T07:48:24;49.97;;;45.53;;
3811;SDS011;1921;49.368;11.068;2023-02-22T07:50:52;50.47;;;45.33;;
3811;SDS011;1921;49.368;11.068;2023-02-22T07:53:19;52.67;;;47.40;;
3811;SDS011;1921;49.368;11.068;2023-02-22T07:55:50;50.80;;;46.17;;
3811;SDS011;1921;49.368;11.068;2023-02-22T07:58:18;51.77;;;46.80;;
3811;SDS011;1921;49.368;11.068;2023-02-22T08:00:46;51.37;;;46.57;;
3811;SDS011;1921;49.368;11.068;2023-02-22T08:03:12;51.17;;;46.47;;
3811;SDS011;1921;49.368;11.068;2023-02-22T08:05:43;52.97;;;47.47;;
3811;SDS011;1921;49.368;11.068;2023-02-22T08:08:12;51.00;;;46.23;;
3811;SDS011;1921;49.368;11.068;2023-02-22T08:10:40;52.93;;;47.80;;
3811;SDS011;1921;49.368;11.068;2023-02-22T08:13:06;51.50;;;46.60;;
3811;SDS011;1921;49.368;11.068;2023-02-22T08:15:34;56.63;;;49.67;;
3811;SDS011;1921;49.368;11.068;2023-02-22T08:18:04;59.57;;;49.57;;
3811;SDS011;1921;49.368;11.068;2023-02-22T08:20:33;52.20;;;47.33;;
3811;SDS011;1921;49.368;11.068;2023-02-22T08:23:00;55.97;;;49.00;;
3811;SDS011;1921;49.368;11.068;2023-02-22T08:25:26;57.77;;;51.67;;
3811;SDS011;1921;49.368;11.068;2023-02-22T08:27:58;82.33;;;56.77;;
3811;SDS011;1921;49.368;11.068;2023-02-22T08:30:26;166.40;;;54.57;;
3811;SDS011;1921;49.368;11.068;2023-02-22T08:32:54;73.30;;;51.80;;
3811;SDS011;1921;49.368;11.068;2023-02-22T08:35:20;54.20;;;48.13;;
3811;SDS011;1921;49.368;11.068;2023-02-22T08:37:52;56.30;;;50.57;;
3811;SDS011;1921;49.368;11.068;2023-02-22T08:40:22;53.27;;;47.90;;
3811;SDS011;1921;49.368;11.068;2023-02-22T08:42:54;53.60;;;48.17;;
3811;SDS011;1921;49.368;11.068;2023-02-22T08:45:19;65.33;;;49.67;;
3811;SDS011;1921;49.368;11.068;2023-02-22T08:47:46;59.23;;;48.63;;
3811;SDS011;1921;49.368;11.068;2023-02-22T08:50:17;58.60;;;49.70;;
3811;SDS011;1921;49.368;11.068;2023-02-22T08:52:50;55.40;;;49.40;;
3811;SDS011;1921;49.368;11.068;2023-02-22T08:55:19;54.60;;;48.70;;
3811;SDS011;1921;49.368;11.068;2023-02-22T08:57:46;57.57;;;49.27;;
3811;SDS011;1921;49.368;11.068;2023-02-22T09:00:12;55.10;;;49.30;;
3811;SDS011;1921;49.368;11.068;2023-02-22T09:02:39;55.43;;;49.63;;
3811;SDS011;1921;49.368;11.068;2023-02-22T09:05:05;56.90;;;48.90;;
3811;SDS011;1921;49.368;11.068;2023-02-22T09:07:32;55.50;;;49.70;;
3811;SDS011;1921;49.368;11.068;2023-02-22T09:09:57;53.23;;;47.73;;
3811;SDS011;1921;49.368;11.068;2023-02-22T09:12:23;60.47;;;50.57;;
3811;SDS011;1921;49.368;11.068;2023-02-22T09:14:49;58.50;;;50.57;;
3811;SDS011;1921;49.368;11.068;2023-02-22T09:17:15;58.33;;;50.80;;
3811;SDS011;1921;49.368;11.068;2023-02-22T09:19:40;57.13;;;50.40;;
3811;SDS011;1921;49.368;11.068;2023-02-22T09:22:07;55.63;;;49.53;;
3811;SDS011;1921;49.368;11.068;2023-02-22T09:24:33;57.17;;;50.50;;
3811;SDS011;1921;49.368;11.068;2023-02-22T09:27:00;59.60;;;49.57;;
3811;SDS011;1921;49.368;11.068;2023-02-22T09:29:28;56.30;;;50.30;;
3811;SDS011;1921;49.368;11.068;2023-02-22T09:31:56;55.77;;;49.73;;
3811;SDS011;1921;49.368;11.068;2023-02-22T09:34:23;59.70;;;50.63;;
3811;SDS011;1921;49.368;11.068;2023-02-22T09:36:53;55.50;;;49.50;;
3811;SDS011;1921;49.368;11.068;2023-02-22T09:39:23;59.50;;;50.27;;
3811;SDS011;1921;49.368;11.068;2023-02-22T09:47:18;57.90;;;51.13;;
3811;SDS011;1921;49.368;11.068;2023-02-22T09:50:01;62.73;;;51.90;;
3811;SDS011;1921;49.368;11.068;2023-02-22T09:52:56;57.40;;;51.10;;
3811;SDS011;1921;49.368;11.068;2023-02-22T09:55:38;59.20;;;50.90;;
3811;SDS011;1921;49.368;11.068;2023-02-22T09:58:13;64.00;;;51.53;;
3811;SDS011;1921;49.368;11.068;2023-02-22T10:00:50;58.13;;;50.77;;
3811;SDS011;1921;49.368;11.068;2023-02-22T10:03:45;58.70;;;51.20;;
3811;SDS011;1921;49.368;11.068;2023-02-22T10:10:17;56.20;;;50.10;;
3811;SDS011;1921;49.368;11.068;2023-02-22T10:12:58;58.47;;;51.33;;
3811;SDS011;1921;49.368;11.068;2023-02-22T10:27:29;62.97;;;52.90;;
3811;SDS011;1921;49.368;11.068;2023-02-22T10:30:12;62.53;;;52.20;;
3811;SDS011;1921;49.368;11.068;2023-02-22T10:32:55;64.93;;;53.40;;
3811;SDS011;1921;49.368;11.068;2023-02-22T10:35:35;68.53;;;53.73;;
3811;SDS011;1921;49.368;11.068;2023-02-22T10:38:26;62.83;;;52.20;;
3811;SDS011;1921;49.368;11.068;2023-02-22T10:43:24;63.40;;;52.83;;
3811;SDS011;1921;49.368;11.068;2023-02-22T10:45:51;62.83;;;53.17;;
3811;SDS011;1921;49.368;11.068;2023-02-22T10:48:20;64.03;;;53.20;;
3811;SDS011;1921;49.368;11.068;2023-02-22T10:50:48;63.23;;;53.00;;
3811;SDS011;1921;49.368;11.068;2023-02-22T10:53:18;67.50;;;54.23;;
3811;SDS011;1921;49.368;11.068;2023-02-22T10:58:37;64.90;;;53.77;;
3811;SDS011;1921;49.368;11.068;2023-02-22T11:01:25;61.70;;;52.70;;
3811;SDS011;1921;49.368;11.068;2023-02-22T11:06:43;62.97;;;52.57;;
3811;SDS011;1921;49.368;11.068;2023-02-22T11:09:19;75.73;;;53.17;;
3811;SDS011;1921;49.368;11.068;2023-02-22T11:11:49;65.57;;;53.60;;
3811;SDS011;1921;49.368;11.068;2023-02-22T11:14:40;65.60;;;52.90;;
3811;SDS011;1921;49.368;11.068;2023-02-22T11:17:06;65.40;;;53.17;;
3811;SDS011;1921;49.368;11.068;2023-02-22T11:19:34;63.30;;;52.67;;
3811;SDS011;1921;49.368;11.068;2023-02-22T11:24:46;62.30;;;52.10;;
3811;SDS011;1921;49.368;11.068;2023-02-22T11:27:40;64.30;;;52.57;;
3811;SDS011;1921;49.368;11.068;2023-02-22T11:32:57;61.90;;;52.37;;
3811;SDS011;1921;49.368;11.068;2023-02-22T11:36:10;65.70;;;53.10;;
3811;SDS011;1921;49.368;11.068;2023-02-22T11:38:36;63.73;;;52.50;;
3811;SDS011;1921;49.368;11.068;2023-02-22T11:41:11;63.10;;;52.37;;
3811;SDS011;1921;49.368;11.068;2023-02-22T11:43:47;66.90;;;52.90;;
3811;SDS011;1921;49.368;11.068;2023-02-22T11:46:19;62.93;;;51.80;;
3811;SDS011;1921;49.368;11.068;2023-02-22T11:48:59;67.23;;;53.20;;
3811;SDS011;1921;49.368;11.068;2023-02-22T11:58:06;64.67;;;52.50;;
3811;SDS011;1921;49.368;11.068;2023-02-22T12:01:08;59.40;;;51.10;;
3811;SDS011;1921;49.368;11.068;2023-02-22T12:07:05;59.30;;;51.80;;
3811;SDS011;1921;49.368;11.068;2023-02-22T12:16:04;59.90;;;50.97;;
3811;SDS011;1921;49.368;11.068;2023-02-22T12:21:39;58.53;;;50.70;;
3811;SDS011;1921;49.368;11.068;2023-02-22T12:24:12;58.63;;;51.07;;
3811;SDS011;1921;49.368;11.068;2023-02-22T12:26:47;59.00;;;50.73;;
3811;SDS011;1921;49.368;11.068;2023-02-22T12:34:39;58.07;;;50.77;;
3811;SDS011;1921;49.368;11.068;2023-02-22T12:37:27;60.10;;;51.27;;
3811;SDS011;1921;49.368;11.068;2023-02-22T12:43:18;57.60;;;49.93;;
3811;SDS011;1921;49.368;11.068;2023-02-22T12:46:03;57.20;;;50.17;;
3811;SDS011;1921;49.368;11.068;2023-02-22T12:54:57;62.73;;;50.90;;
3811;SDS011;1921;49.368;11.068;2023-02-22T12:58:06;59.07;;;50.60;;
3811;SDS011;1921;49.368;11.068;2023-02-22T13:00:56;59.90;;;50.93;;
3811;SDS011;1921;49.368;11.068;2023-02-22T13:03:37;59.47;;;50.83;;
3811;SDS011;1921;49.368;11.068;2023-02-22T13:06:24;65.70;;;51.10;;
3811;SDS011;1921;49.368;11.068;2023-02-22T13:09:40;58.67;;;50.40;;
3811;SDS011;1921;49.368;11.068;2023-02-22T13:27:24;59.90;;;51.00;;
3811;SDS011;1921;49.368;11.068;2023-02-22T13:30:15;59.83;;;50.90;;
3811;SDS011;1921;49.368;11.068;2023-02-22T13:36:33;61.90;;;50.83;;
3811;SDS011;1921;49.368;11.068;2023-02-22T13:42:25;58.60;;;50.57;;
3811;SDS011;1921;49.368;11.068;2023-02-22T13:45:20;58.70;;;50.57;;
3811;SDS011;1921;49.368;11.068;2023-02-22T13:48:01;58.40;;;50.57;;
3811;SDS011;1921;49.368;11.068;2023-02-22T13:51:29;59.83;;;50.37;;
3811;SDS011;1921;49.368;11.068;2023-02-22T13:54:16;59.57;;;50.80;;
3811;SDS011;1921;49.368;11.068;2023-02-22T13:57:16;59.30;;;50.77;;
3811;SDS011;1921;49.368;11.068;2023-02-22T14:10:52;59.30;;;50.87;;
3811;SDS011;1921;49.368;11.068;2023-02-22T14:13:23;59.37;;;51.07;;
3811;SDS011;1921;49.368;11.068;2023-02-22T14:18:26;59.10;;;50.30;;
3811;SDS011;1921;49.368;11.068;2023-02-22T14:28:49;57.20;;;49.80;;
3811;SDS011;1921;49.368;11.068;2023-02-22T14:31:28;59.47;;;49.67;;
3811;SDS011;1921;49.368;11.068;2023-02-22T14:38:55;55.80;;;49.13;;
3811;SDS011;1921;49.368;11.068;2023-02-22T14:41:55;54.83;;;48.83;;
3811;SDS011;1921;49.368;11.068;2023-02-22T14:44:32;57.77;;;49.40;;
3811;SDS011;1921;49.368;11.068;2023-02-22T14:47:21;54.80;;;48.80;;
3811;SDS011;1921;49.368;11.068;2023-02-22T14:50:07;55.97;;;49.20;;
3811;SDS011;1921;49.368;11.068;2023-02-22T14:52:47;55.23;;;48.83;;
3811;SDS011;1921;49.368;11.068;2023-02-22T14:55:45;54.63;;;48.73;;
3811;SDS011;1921;49.368;11.068;2023-02-22T14:58:26;55.00;;;48.97;;
3811;SDS011;1921;49.368;11.068;2023-02-22T15:01:19;55.10;;;48.87;;
3811;SDS011;1921;49.368;11.068;2023-02-22T15:03:47;54.33;;;48.00;;
3811;SDS011;1921;49.368;11.068;2023-02-22T15:06:15;54.30;;;48.40;;
3811;SDS011;1921;49.368;11.068;2023-02-22T15:08:46;54.37;;;48.47;;
3811;SDS011;1921;49.368;11.068;2023-02-22T15:11:28;55.03;;;48.60;;
3811;SDS011;1921;49.368;11.068;2023-02-22T15:13:57;54.53;;;48.63;;
3811;SDS011;1921;49.368;11.068;2023-02-22T15:16:31;53.97;;;48.07;;
3811;SDS011;1921;49.368;11.068;2023-02-22T15:18:59;54.43;;;48.43;;
3811;SDS011;1921;49.368;11.068;2023-02-22T15:21:31;54.00;;;48.10;;
3811;SDS011;1921;49.368;11.068;2023-02-22T15:23:59;54.43;;;48.63;;
3811;SDS011;1921;49.368;11.068;2023-02-22T15:28:59;58.87;;;48.97;;
3811;SDS011;1921;49.368;11.068;2023-02-22T15:31:30;54.63;;;48.63;;
3811;SDS011;1921;49.368;11.068;2023-02-22T15:36:39;54.40;;;48.50;;
3811;SDS011;1921;49.368;11.068;2023-02-22T15:42:12;54.70;;;48.80;;
3811;SDS011;1921;49.368;11.068;2023-02-22T15:44:43;53.73;;;48.03;;
3811;SDS011;1921;49.368;11.068;2023-02-22T15:47:47;56.13;;;48.63;;
3811;SDS011;1921;49.368;11.068;2023-02-22T15:50:13;54.00;;;48.20;;
3811;SDS011;1921;49.368;11.068;2023-02-22T15:55:30;54.47;;;48.23;;
3811;SDS011;1921;49.368;11.068;2023-02-22T15:58:10;56.97;;;48.07;;
3811;SDS011;1921;49.368;11.068;2023-02-22T16:00:50;56.77;;;48.87;;
3811;SDS011;1921;49.368;11.068;2023-02-22T16:03:24;54.63;;;48.63;;
3811;SDS011;1921;49.368;11.068;2023-02-22T16:05:57;54.70;;;48.83;;
3811;SDS011;1921;49.368;11.068;2023-02-22T16:08:25;54.57;;;48.67;;
3811;SDS011;1921;49.368;11.068;2023-02-22T16:11:31;54.60;;;48.13;;
3811;SDS011;1921;49.368;11.068;2023-02-22T16:14:03;54.33;;;48.43;;
3811;SDS011;1921;49.368;11.068;2023-02-22T16:16:46;53.77;;;48.10;;
3811;SDS011;1921;49.368;11.068;2023-02-22T16:19:58;53.60;;;47.90;;
3811;SDS011;1921;49.368;11.068;2023-02-22T16:22:03;54.30;;;48.50;;
3811;SDS011;1921;49.368;11.068;2023-02-22T16:24:37;53.10;;;47.40;;
3811;SDS011;1921;49.368;11.068;2023-02-22T16:29:42;52.90;;;47.30;;
3811;SDS011;1921;49.368;11.068;2023-02-22T16:32:24;56.43;;;47.93;;
3811;SDS011;1921;49.368;11.068;2023-02-22T16:34:49;53.87;;;48.17;;
3811;SDS011;1921;49.368;11.068;2023-02-22T16:37:19;54.40;;;48.57;;
3811;SDS011;1921;49.368;11.068;2023-02-22T16:39:48;52.97;;;47.47;;
3811;SDS011;1921;49.368;11.068;2023-02-22T16:42:16;53.23;;;47.63;;
3811;SDS011;1921;49.368;11.068;2023-02-22T16:44:48;53.67;;;47.97;;
3811;SDS011;1921;49.368;11.068;2023-02-22T16:47:15;53.50;;;47.70;;
3811;SDS011;1921;49.368;11.068;2023-02-22T16:49:43;59.57;;;48.40;;
3811;SDS011;1921;49.368;11.068;2023-02-22T16:52:12;53.10;;;47.53;;
3811;SDS011;1921;49.368;11.068;2023-02-22T16:54:40;54.37;;;48.50;;
3811;SDS011;1921;49.368;11.068;2023-02-22T16:57:13;53.33;;;47.63;;
3811;SDS011;1921;49.368;11.068;2023-02-22T16:59:46;54.03;;;48.27;;
3811;SDS011;1921;49.368;11.068;2023-02-22T17:02:15;53.43;;;47.73;;
3811;SDS011;1921;49.368;11.068;2023-02-22T17:04:42;53.77;;;48.03;;
3811;SDS011;1921;49.368;11.068;2023-02-22T17:07:14;54.70;;;48.10;;
3811;SDS011;1921;49.368;11.068;2023-02-22T17:09:53;52.83;;;47.40;;
3811;SDS011;1921;49.368;11.068;2023-02-22T17:12:22;55.33;;;48.80;;
3811;SDS011;1921;49.368;11.068;2023-02-22T17:14:49;52.70;;;47.30;;
3811;SDS011;1921;49.368;11.068;2023-02-22T17:17:15;52.60;;;47.20;;
3811;SDS011;1921;49.368;11.068;2023-02-22T17:19:41;53.03;;;47.30;;
3811;SDS011;1921;49.368;11.068;2023-02-22T17:22:18;52.63;;;47.07;;
3811;SDS011;1921;49.368;11.068;2023-02-22T17:24:46;52.93;;;47.43;;
3811;SDS011;1921;49.368;11.068;2023-02-22T17:27:11;53.93;;;48.27;;
3811;SDS011;1921;49.368;11.068;2023-02-22T17:29:38;55.53;;;49.53;;
3811;SDS011;1921;49.368;11.068;2023-02-22T17:32:05;55.13;;;49.43;;
3811;SDS011;1921;49.368;11.068;2023-02-22T17:34:32;55.73;;;49.73;;
3811;SDS011;1921;49.368;11.068;2023-02-22T17:36:57;55.70;;;49.80;;
3811;SDS011;1921;49.368;11.068;2023-02-22T17:39:23;57.33;;;50.00;;
3811;SDS011;1921;49.368;11.068;2023-02-22T17:41:51;54.23;;;48.63;;
3811;SDS011;1921;49.368;11.068;2023-02-22T17:44:21;52.87;;;47.37;;
3811;SDS011;1921;49.368;11.068;2023-02-22T17:46:50;54.83;;;49.03;;
3811;SDS011;1921;49.368;11.068;2023-02-22T17:49:17;53.80;;;48.30;;
3811;SDS011;1921;49.368;11.068;2023-02-22T17:51:43;55.43;;;49.53;;